Terminal Aerodrome Forecast
Issued by NWS

Home | Current Version | Previous Version | Text Only | Print | Product List | Glossary On
Versions: 1 2 3 4 5 6 7 8 9 10 11 12 13 14 15 16 17 18 19 20 21 22
000
FTUS43 KPAH 221354 AAA
TAFCGI
TAF AMD
KCGI 221354Z 2214/2312 06008KT P6SM SCT040 OVC100
     FM221800 01012G20KT 5SM -RA BR BKN025 OVC060
     FM230000 34017G27KT P6SM OVC035=

USA.gov is the U.S. government's official web portal to all federal, state and local government web resources and services.